Time;durP1;ratioP1;P1;durP2;ratioP2;P2;SDS_P1;SDS_P2;PMS_P1;PMS_P2;Temp;Humidity;BMP_temperature;BMP_pressure;BME280_temperature;BME280_humidity;BME280_pressure;Samples;Min_cycle;Max_cycle;Signal;HPM_P1;HPM_P2
2023/12/27 00:02:22;;;;;;;;;;;7.10;99.90;;;;;;7333057;19;108707;-66
2023/12/27 00:04:50;;;;;;;;;;;7.10;99.90;;;;;;7332158;19;110136;-66
2023/12/27 00:07:17;;;;;;;;;;;7.10;99.90;;;;;;7332089;19;108732;-66
2023/12/27 00:09:44;;;;;;;;;;;7.10;99.90;;;;;;7328854;19;110523;-66
2023/12/27 00:12:13;;;;;;;;;;;7.00;99.90;;;;;;7326328;19;110245;-67
2023/12/27 00:14:40;;;;;;;;;;;7.00;99.90;;;;;;7324757;19;108828;-67
2023/12/27 00:17:08;;;;;;;;;;;7.10;99.90;;;;;;7331895;19;110675;-70
2023/12/27 00:19:35;;;;;;;;;;;7.10;99.90;;;;;;7323781;19;109256;-66
2023/12/27 00:22:02;;;;;;;;;;;7.10;99.90;;;;;;7324354;19;110031;-66
2023/12/27 00:24:29;;;;;;;;;;;7.10;99.90;;;;;;7326931;19;109222;-68
2023/12/27 00:26:57;;;;;;;;;;;7.10;99.90;;;;;;7325658;19;108838;-66
2023/12/27 00:29:24;;;;;;;;;;;7.10;99.90;;;;;;7325267;19;110038;-66
2023/12/27 00:31:51;;;;;;;;;;;7.00;99.90;;;;;;7325124;19;110377;-66
2023/12/27 00:34:18;;;;;;;;;;;7.00;99.90;;;;;;7328354;19;109196;-66
2023/12/27 00:36:46;;;;;;;;;;;7.00;99.90;;;;;;7330317;19;109526;-66
2023/12/27 00:39:13;;;;;;;;;;;6.90;99.90;;;;;;7324036;19;109326;-67
2023/12/27 00:41:40;;;;;;;;;;;6.90;99.90;;;;;;7326513;19;108781;-66
2023/12/27 00:44:08;;;;;;;;;;;6.90;99.90;;;;;;7324669;19;109897;-66
2023/12/27 00:46:35;;;;;;;;;;;6.90;99.90;;;;;;7328770;19;113576;-66
2023/12/27 00:49:03;;;;;;;;;;;6.90;99.90;;;;;;7325609;19;108721;-66
2023/12/27 00:51:30;;;;;;;;;;;6.90;99.90;;;;;;7330132;19;113839;-66
2023/12/27 00:53:57;;;;;;;;;;;6.90;99.90;;;;;;7325572;19;108999;-66
2023/12/27 00:56:25;;;;;;;;;;;6.90;99.90;;;;;;7330024;19;109086;-66
2023/12/27 00:58:52;;;;;;;;;;;6.90;99.90;;;;;;7331358;19;109136;-66
2023/12/27 01:01:19;;;;;;;;;;;6.90;99.90;;;;;;7329181;19;110242;-66
2023/12/27 01:03:46;;;;;;;;;;;6.90;99.90;;;;;;7333289;19;110005;-66
2023/12/27 01:06:14;;;;;;;;;;;6.90;99.90;;;;;;7331736;19;109539;-66
2023/12/27 01:08:41;;;;;;;;;;;6.90;99.90;;;;;;7334127;19;109519;-66
2023/12/27 01:11:08;;;;;;;;;;;6.90;99.90;;;;;;7336662;19;109822;-66
2023/12/27 01:13:35;;;;;;;;;;;6.90;99.90;;;;;;7332598;19;113137;-64
2023/12/27 01:16:02;;;;;;;;;;;6.80;99.90;;;;;;7329908;19;109030;-65
2023/12/27 01:18:30;;;;;;;;;;;6.80;99.90;;;;;;7328996;19;110150;-66
2023/12/27 01:20:57;;;;;;;;;;;6.80;99.90;;;;;;7333473;19;111321;-65
2023/12/27 01:23:24;;;;;;;;;;;6.80;99.90;;;;;;7329502;19;109187;-65
2023/12/27 01:25:51;;;;;;;;;;;6.80;99.90;;;;;;7332192;19;108906;-67
2023/12/27 01:28:19;;;;;;;;;;;6.70;99.90;;;;;;7325589;19;110272;-65
2023/12/27 01:30:46;;;;;;;;;;;6.80;99.90;;;;;;7326410;19;109909;-66
2023/12/27 01:33:13;;;;;;;;;;;6.80;99.90;;;;;;7331605;19;108868;-66
2023/12/27 01:35:41;;;;;;;;;;;6.80;99.90;;;;;;7330459;19;109900;-67
2023/12/27 01:38:08;;;;;;;;;;;6.80;99.90;;;;;;7328810;19;110120;-66
2023/12/27 01:40:35;;;;;;;;;;;6.80;99.90;;;;;;7331449;19;108926;-66
2023/12/27 01:43:02;;;;;;;;;;;6.80;99.90;;;;;;7334458;19;110783;-66
2023/12/27 01:45:30;;;;;;;;;;;6.80;99.90;;;;;;7329850;19;109458;-66
2023/12/27 01:47:57;;;;;;;;;;;6.80;99.90;;;;;;7331252;19;109709;-66
2023/12/27 01:50:25;;;;;;;;;;;6.80;99.90;;;;;;7328513;19;110012;-66
2023/12/27 01:52:52;;;;;;;;;;;6.80;99.90;;;;;;7330723;19;110044;-67
2023/12/27 01:55:19;;;;;;;;;;;6.80;99.90;;;;;;7330824;19;109283;-67
2023/12/27 01:57:47;;;;;;;;;;;6.90;99.90;;;;;;7331591;19;109133;-66
2023/12/27 02:00:14;;;;;;;;;;;6.90;99.90;;;;;;7331332;19;110796;-66
2023/12/27 02:02:42;;;;;;;;;;;7.00;99.90;;;;;;7330022;19;109605;-67
2023/12/27 02:05:09;;;;;;;;;;;7.00;99.90;;;;;;7332122;19;110509;-66
2023/12/27 02:07:37;;;;;;;;;;;7.10;99.90;;;;;;7335908;19;109150;-66
2023/12/27 02:10:05;;;;;;;;;;;7.10;99.90;;;;;;7333835;19;109969;-66
2023/12/27 02:12:32;;;;;;;;;;;7.10;99.90;;;;;;7334060;19;108503;-66
2023/12/27 02:15:00;;;;;;;;;;;7.10;99.90;;;;;;7334384;19;108882;-66
2023/12/27 02:17:27;;;;;;;;;;;7.10;99.90;;;;;;7332855;19;109221;-66
2023/12/27 02:19:55;;;;;;;;;;;7.20;99.90;;;;;;7331964;19;111418;-66
2023/12/27 02:22:23;;;;;;;;;;;7.20;99.90;;;;;;7334621;19;108872;-66
2023/12/27 02:24:51;;;;;;;;;;;7.20;99.90;;;;;;7331859;19;109761;-66
2023/12/27 02:27:18;;;;;;;;;;;7.20;99.90;;;;;;7340524;19;108782;-66
2023/12/27 02:29:46;;;;;;;;;;;7.30;99.90;;;;;;7331676;19;109216;-66
2023/12/27 02:32:13;;;;;;;;;;;7.30;99.90;;;;;;7333100;19;108969;-66
2023/12/27 02:34:40;;;;;;;;;;;7.30;99.90;;;;;;7335445;19;110257;-66
2023/12/27 02:37:07;;;;;;;;;;;7.30;99.90;;;;;;7331845;19;109152;-67
2023/12/27 02:39:35;;;;;;;;;;;7.40;99.90;;;;;;7334087;19;110610;-69
2023/12/27 02:42:02;;;;;;;;;;;7.40;99.90;;;;;;7331202;19;108824;-66
2023/12/27 02:44:29;;;;;;;;;;;7.30;99.90;;;;;;7332629;19;110728;-66
2023/12/27 02:46:56;;;;;;;;;;;7.40;99.90;;;;;;7335429;19;109950;-67
2023/12/27 02:49:23;;;;;;;;;;;7.50;99.90;;;;;;7333197;19;110186;-66
2023/12/27 02:51:51;;;;;;;;;;;7.50;99.90;;;;;;7330572;19;108722;-66
2023/12/27 02:54:18;;;;;;;;;;;7.50;99.90;;;;;;7335314;19;109896;-66
2023/12/27 02:56:45;;;;;;;;;;;7.50;99.90;;;;;;7329423;19;110405;-66
2023/12/27 02:59:12;;;;;;;;;;;7.60;99.90;;;;;;7333852;19;108841;-66
2023/12/27 03:01:40;;;;;;;;;;;7.60;99.90;;;;;;7331918;19;109277;-66
2023/12/27 03:04:07;;;;;;;;;;;7.60;99.90;;;;;;7332795;19;109491;-66
2023/12/27 03:06:34;;;;;;;;;;;7.60;99.90;;;;;;7334386;19;108693;-66
2023/12/27 03:09:01;;;;;;;;;;;7.70;99.90;;;;;;7334850;19;109411;-66
2023/12/27 03:11:30;;;;;;;;;;;7.60;99.90;;;;;;7333093;19;108880;-66
2023/12/27 03:13:57;;;;;;;;;;;7.70;99.90;;;;;;7331534;19;110143;-67
2023/12/27 03:16:27;;;;;;;;;;;7.70;99.90;;;;;;7328283;19;109559;-64
2023/12/27 03:18:54;;;;;;;;;;;7.70;99.90;;;;;;7333626;19;109033;-66
2023/12/27 03:21:21;;;;;;;;;;;7.70;99.90;;;;;;7331341;19;109158;-66
2023/12/27 03:23:49;;;;;;;;;;;7.70;99.90;;;;;;7333222;19;110671;-66
2023/12/27 03:26:16;;;;;;;;;;;7.80;99.90;;;;;;7330255;19;108819;-68
2023/12/27 03:28:43;;;;;;;;;;;7.80;99.90;;;;;;7331416;19;109113;-66
2023/12/27 03:31:12;;;;;;;;;;;7.80;99.90;;;;;;7338672;19;109621;-66
2023/12/27 03:33:39;;;;;;;;;;;7.80;99.90;;;;;;7329198;19;110780;-66
2023/12/27 03:36:07;;;;;;;;;;;7.80;99.90;;;;;;7331118;19;109103;-66
2023/12/27 03:38:35;;;;;;;;;;;7.80;99.90;;;;;;7333611;19;109353;-66
2023/12/27 03:41:03;;;;;;;;;;;7.80;99.90;;;;;;7330414;19;108604;-66
2023/12/27 03:43:30;;;;;;;;;;;7.90;99.90;;;;;;7332048;19;111521;-66
2023/12/27 03:45:58;;;;;;;;;;;7.90;99.90;;;;;;7329615;19;109747;-66
2023/12/27 03:48:25;;;;;;;;;;;7.90;99.90;;;;;;7334179;19;110407;-67
2023/12/27 03:50:53;;;;;;;;;;;8.00;99.90;;;;;;7330427;19;109220;-66
2023/12/27 03:53:20;;;;;;;;;;;8.00;99.90;;;;;;7336128;19;112415;-66
2023/12/27 03:55:47;;;;;;;;;;;8.00;99.90;;;;;;7329051;19;110056;-66
2023/12/27 03:58:15;;;;;;;;;;;8.00;99.90;;;;;;7332252;19;108921;-66
2023/12/27 04:00:42;;;;;;;;;;;8.00;99.90;;;;;;7330601;19;108602;-66
2023/12/27 04:03:10;;;;;;;;;;;8.00;99.90;;;;;;7327841;19;109870;-66
2023/12/27 04:05:37;;;;;;;;;;;8.10;99.90;;;;;;7331997;19;108779;-66
2023/12/27 04:08:05;;;;;;;;;;;8.10;99.90;;;;;;7327120;19;109253;-66
2023/12/27 04:10:32;;;;;;;;;;;8.10;99.90;;;;;;7333236;19;109128;-66
2023/12/27 04:12:59;;;;;;;;;;;8.10;99.90;;;;;;7331279;19;108675;-66
2023/12/27 04:15:26;;;;;;;;;;;8.10;99.90;;;;;;7337401;19;109091;-66
2023/12/27 04:17:53;;;;;;;;;;;8.10;99.90;;;;;;7332232;19;108905;-67
2023/12/27 04:20:21;;;;;;;;;;;8.10;99.90;;;;;;7332170;19;109183;-75
2023/12/27 04:22:48;;;;;;;;;;;8.10;99.90;;;;;;7330713;19;110019;-68
2023/12/27 04:25:15;;;;;;;;;;;8.10;99.90;;;;;;7331568;19;109996;-68
2023/12/27 04:27:43;;;;;;;;;;;8.10;99.90;;;;;;7330742;19;111305;-73
2023/12/27 04:30:10;;;;;;;;;;;8.10;99.90;;;;;;7333469;19;109187;-76
2023/12/27 04:32:37;;;;;;;;;;;8.10;99.90;;;;;;7331656;19;108639;-74
2023/12/27 04:35:05;;;;;;;;;;;8.20;99.90;;;;;;7334733;19;109071;-71
2023/12/27 04:37:32;;;;;;;;;;;8.20;99.90;;;;;;7335244;19;109215;-69
2023/12/27 04:39:59;;;;;;;;;;;8.20;99.90;;;;;;7336454;19;108408;-68
2023/12/27 04:42:27;;;;;;;;;;;8.20;99.90;;;;;;7338805;19;109191;-67
2023/12/27 04:44:54;;;;;;;;;;;8.20;99.90;;;;;;7337780;19;110309;-67
2023/12/27 04:47:21;;;;;;;;;;;8.30;99.90;;;;;;7336984;19;108873;-69
2023/12/27 04:49:49;;;;;;;;;;;8.30;99.90;;;;;;7338887;19;110308;-66
2023/12/27 04:52:16;;;;;;;;;;;8.30;99.90;;;;;;7337231;19;109140;-70
2023/12/27 04:54:44;;;;;;;;;;;8.30;99.90;;;;;;7337409;19;110273;-68
2023/12/27 04:57:11;;;;;;;;;;;8.30;99.90;;;;;;7340664;19;109218;-67
2023/12/27 04:59:38;;;;;;;;;;;8.40;99.90;;;;;;7337888;19;108544;-67
2023/12/27 05:02:06;;;;;;;;;;;8.40;99.90;;;;;;7335114;19;109945;-67
2023/12/27 05:04:33;;;;;;;;;;;8.40;99.90;;;;;;7336516;19;111529;-69
2023/12/27 05:07:01;;;;;;;;;;;8.40;99.90;;;;;;7335558;19;109407;-67
2023/12/27 05:09:28;;;;;;;;;;;8.40;99.90;;;;;;7334965;19;109294;-72
2023/12/27 05:11:55;;;;;;;;;;;8.40;99.90;;;;;;7336555;19;113714;-67
2023/12/27 05:14:22;;;;;;;;;;;8.40;99.90;;;;;;7332032;19;110759;-67
2023/12/27 05:16:54;;;;;;;;;;;8.40;99.90;;;;;;7337102;19;109294;-67
2023/12/27 05:19:22;;;;;;;;;;;8.40;99.90;;;;;;7341007;19;108920;-65
2023/12/27 05:21:52;;;;;;;;;;;8.50;99.90;;;;;;7337163;19;108704;-66
2023/12/27 05:24:19;;;;;;;;;;;8.50;99.90;;;;;;7338411;19;109535;-64
2023/12/27 05:26:46;;;;;;;;;;;8.40;99.90;;;;;;7335800;19;108947;-65
2023/12/27 05:29:14;;;;;;;;;;;8.50;99.90;;;;;;7338118;19;111576;-64
2023/12/27 05:31:41;;;;;;;;;;;8.50;99.90;;;;;;7335118;19;109519;-65
2023/12/27 05:34:08;;;;;;;;;;;8.50;99.90;;;;;;7337088;19;109673;-65
2023/12/27 05:36:36;;;;;;;;;;;8.50;99.90;;;;;;7330539;19;111834;-65
2023/12/27 05:39:03;;;;;;;;;;;8.50;99.90;;;;;;7334775;19;108714;-65
2023/12/27 05:41:30;;;;;;;;;;;8.50;99.90;;;;;;7338016;19;108836;-65
2023/12/27 05:43:58;;;;;;;;;;;8.60;99.90;;;;;;7336580;19;109169;-65
2023/12/27 05:46:26;;;;;;;;;;;8.60;99.90;;;;;;7334539;19;109144;-65
2023/12/27 05:48:53;;;;;;;;;;;8.60;99.90;;;;;;7332010;19;109835;-65
2023/12/27 05:51:20;;;;;;;;;;;8.60;99.90;;;;;;7333655;19;108840;-65
2023/12/27 05:53:47;;;;;;;;;;;8.60;99.90;;;;;;7330311;19;110181;-65
2023/12/27 05:56:15;;;;;;;;;;;8.60;99.90;;;;;;7332216;19;109279;-65
2023/12/27 05:58:42;;;;;;;;;;;8.70;99.90;;;;;;7331374;19;108934;-65
2023/12/27 06:01:09;;;;;;;;;;;8.70;99.90;;;;;;7331942;19;108847;-65
2023/12/27 06:03:36;;;;;;;;;;;8.70;99.90;;;;;;7336631;19;109286;-65
2023/12/27 06:06:04;;;;;;;;;;;8.70;99.90;;;;;;7334155;19;109272;-65
2023/12/27 06:08:31;;;;;;;;;;;8.70;99.90;;;;;;7329610;19;110202;-65
2023/12/27 06:10:59;;;;;;;;;;;8.70;99.90;;;;;;7333750;19;108887;-65
2023/12/27 06:13:26;;;;;;;;;;;8.70;99.90;;;;;;7334473;19;109191;-65
2023/12/27 06:15:54;;;;;;;;;;;8.70;99.90;;;;;;7330167;19;110145;-65
2023/12/27 06:18:21;;;;;;;;;;;8.80;99.90;;;;;;7331501;19;110597;-65
2023/12/27 06:20:49;;;;;;;;;;;8.80;99.90;;;;;;7333820;19;109721;-65
2023/12/27 06:23:16;;;;;;;;;;;8.80;99.90;;;;;;7335716;19;109319;-65
2023/12/27 06:25:43;;;;;;;;;;;8.80;99.90;;;;;;7336873;19;110674;-64
2023/12/27 06:28:11;;;;;;;;;;;8.80;99.90;;;;;;7334789;19;109413;-65
2023/12/27 06:30:38;;;;;;;;;;;8.90;99.90;;;;;;7330971;19;108595;-65
2023/12/27 06:33:06;;;;;;;;;;;8.90;99.90;;;;;;7335419;19;109839;-65
2023/12/27 06:35:33;;;;;;;;;;;8.90;99.90;;;;;;7332189;19;110454;-65
2023/12/27 06:38:00;;;;;;;;;;;8.90;99.90;;;;;;7333799;19;109245;-65
2023/12/27 06:40:27;;;;;;;;;;;8.90;99.90;;;;;;7330122;19;108921;-65
2023/12/27 06:42:55;;;;;;;;;;;8.90;99.90;;;;;;7331767;19;110576;-65
2023/12/27 06:45:22;;;;;;;;;;;9.00;99.90;;;;;;7327443;19;109251;-65
2023/12/27 06:47:49;;;;;;;;;;;8.90;99.90;;;;;;7337856;19;109355;-65
2023/12/27 06:50:16;;;;;;;;;;;9.00;99.90;;;;;;7332458;19;109673;-65
2023/12/27 06:52:43;;;;;;;;;;;9.00;99.90;;;;;;7329796;19;109612;-64
2023/12/27 06:55:11;;;;;;;;;;;9.00;99.90;;;;;;7331648;19;109477;-66
2023/12/27 06:57:39;;;;;;;;;;;9.00;99.90;;;;;;7334298;19;108977;-66
2023/12/27 07:00:07;;;;;;;;;;;9.00;99.90;;;;;;7330906;19;108512;-66
2023/12/27 07:02:35;;;;;;;;;;;9.10;99.90;;;;;;7329781;19;109745;-66
2023/12/27 07:05:02;;;;;;;;;;;9.10;99.90;;;;;;7329105;19;109465;-66
2023/12/27 07:07:29;;;;;;;;;;;9.10;99.90;;;;;;7336532;19;109149;-66
2023/12/27 07:09:57;;;;;;;;;;;9.10;99.90;;;;;;7331436;19;108905;-66
2023/12/27 07:12:24;;;;;;;;;;;9.10;99.90;;;;;;7335485;19;109607;-66
2023/12/27 07:14:51;;;;;;;;;;;9.10;99.90;;;;;;7330204;19;109598;-66
2023/12/27 07:17:20;;;;;;;;;;;9.10;99.90;;;;;;7336302;19;108343;-66
2023/12/27 07:19:47;;;;;;;;;;;9.20;99.90;;;;;;7331684;19;108737;-65
2023/12/27 07:22:14;;;;;;;;;;;9.20;99.90;;;;;;7330928;19;109261;-67
2023/12/27 07:24:42;;;;;;;;;;;9.20;99.90;;;;;;7333214;19;108886;-66
2023/12/27 07:27:09;;;;;;;;;;;9.20;99.90;;;;;;7330611;19;109299;-66
2023/12/27 07:29:37;;;;;;;;;;;9.30;99.90;;;;;;7338120;19;110181;-66
2023/12/27 07:32:04;;;;;;;;;;;9.30;99.90;;;;;;7332394;19;108543;-66
2023/12/27 07:34:33;;;;;;;;;;;9.40;99.90;;;;;;7334385;19;110377;-66
2023/12/27 07:37:01;;;;;;;;;;;9.40;99.90;;;;;;7330688;19;108860;-66
2023/12/27 07:39:41;;;;;;;;;;;9.40;99.90;;;;;;7330449;19;112098;-66
2023/12/27 07:42:09;;;;;;;;;;;9.50;99.90;;;;;;7331766;19;110175;-66
2023/12/27 07:44:36;;;;;;;;;;;9.50;99.90;;;;;;7332259;19;108674;-66
2023/12/27 07:47:04;;;;;;;;;;;9.50;99.90;;;;;;7326570;19;110191;-66
2023/12/27 07:49:31;;;;;;;;;;;9.50;99.90;;;;;;7333182;19;109336;-66
2023/12/27 07:51:59;;;;;;;;;;;9.60;99.90;;;;;;7336167;19;111056;-66
2023/12/27 07:54:26;;;;;;;;;;;9.60;99.90;;;;;;7335259;19;109671;-66
2023/12/27 07:56:54;;;;;;;;;;;9.60;99.90;;;;;;7333556;19;108346;-68
2023/12/27 07:59:21;;;;;;;;;;;9.60;99.90;;;;;;7335481;19;108871;-66
2023/12/27 08:01:49;;;;;;;;;;;9.60;99.90;;;;;;7331409;19;110237;-66
2023/12/27 08:04:16;;;;;;;;;;;9.70;99.90;;;;;;7332934;19;108769;-66
2023/12/27 08:06:45;;;;;;;;;;;9.60;99.90;;;;;;7330553;19;108783;-66
2023/12/27 08:09:13;;;;;;;;;;;9.70;99.90;;;;;;7327289;19;110360;-66
2023/12/27 08:11:40;;;;;;;;;;;9.70;99.90;;;;;;7333119;19;108572;-66
2023/12/27 08:14:07;;;;;;;;;;;9.70;99.90;;;;;;7338223;19;108961;-65
2023/12/27 08:16:34;;;;;;;;;;;9.70;99.90;;;;;;7330062;19;109407;-65
2023/12/27 08:19:02;;;;;;;;;;;9.70;99.90;;;;;;7334094;19;110511;-65
2023/12/27 08:21:29;;;;;;;;;;;9.70;99.90;;;;;;7332910;19;110274;-66
2023/12/27 08:23:56;;;;;;;;;;;9.70;99.90;;;;;;7333567;19;109215;-69
2023/12/27 08:26:23;;;;;;;;;;;9.80;99.90;;;;;;7332837;19;109210;-67
2023/12/27 08:28:50;;;;;;;;;;;9.80;99.90;;;;;;7331553;19;109564;-67
2023/12/27 08:31:17;;;;;;;;;;;9.80;99.90;;;;;;7333375;19;108715;-69
2023/12/27 08:33:48;;;;;;;;;;;9.90;99.90;;;;;;7324725;19;108767;-66
2023/12/27 08:36:16;;;;;;;;;;;9.90;99.90;;;;;;7336474;19;110342;-75
2023/12/27 08:38:44;;;;;;;;;;;10.00;99.90;;;;;;7330069;19;109153;-74
2023/12/27 08:41:11;;;;;;;;;;;10.00;99.90;;;;;;7328882;19;110017;-68
2023/12/27 08:43:39;;;;;;;;;;;10.00;99.90;;;;;;7332533;19;108466;-66
2023/12/27 08:46:09;;;;;;;;;;;10.00;99.90;;;;;;7328805;19;108940;-66
2023/12/27 08:48:36;;;;;;;;;;;10.00;99.90;;;;;;7331062;19;109084;-66
2023/12/27 08:51:04;;;;;;;;;;;10.00;99.90;;;;;;7329268;19;109252;-66
2023/12/27 08:53:31;;;;;;;;;;;10.10;99.90;;;;;;7330767;19;108860;-67
2023/12/27 08:55:58;;;;;;;;;;;10.10;99.90;;;;;;7327518;19;110554;-66
2023/12/27 08:58:25;;;;;;;;;;;10.20;99.90;;;;;;7336513;19;111449;-66
2023/12/27 09:00:53;;;;;;;;;;;10.20;99.90;;;;;;7328222;19;109865;-66
2023/12/27 09:03:20;;;;;;;;;;;10.20;99.90;;;;;;7327533;19;109075;-67
2023/12/27 09:05:48;;;;;;;;;;;10.30;99.90;;;;;;7324500;19;108994;-66
2023/12/27 09:08:15;;;;;;;;;;;10.30;99.90;;;;;;7327369;19;110532;-66
2023/12/27 09:10:42;;;;;;;;;;;10.30;99.90;;;;;;7329911;19;109783;-66
2023/12/27 09:13:10;;;;;;;;;;;10.40;99.90;;;;;;7328301;19;109315;-66
2023/12/27 09:15:37;;;;;;;;;;;10.40;99.90;;;;;;7330172;19;110132;-66
2023/12/27 09:18:04;;;;;;;;;;;10.40;99.90;;;;;;7333793;19;108667;-66
2023/12/27 09:20:32;;;;;;;;;;;10.40;99.90;;;;;;7325749;19;111082;-66
2023/12/27 09:23:00;;;;;;;;;;;10.50;99.90;;;;;;7324650;19;108910;-66
2023/12/27 09:25:27;;;;;;;;;;;10.50;99.90;;;;;;7334638;19;108556;-66
2023/12/27 09:27:55;;;;;;;;;;;10.50;99.90;;;;;;7333064;19;109448;-66
2023/12/27 09:30:22;;;;;;;;;;;10.50;99.90;;;;;;7336342;19;108929;-66
2023/12/27 09:32:50;;;;;;;;;;;10.50;99.90;;;;;;7335217;19;109415;-66
2023/12/27 09:35:26;;;;;;;;;;;10.50;99.90;;;;;;7333659;19;109165;-66
2023/12/27 09:37:53;;;;;;;;;;;10.50;99.90;;;;;;7336111;19;108592;-66
2023/12/27 09:40:21;;;;;;;;;;;10.60;99.90;;;;;;7340807;19;109349;-66
2023/12/27 09:42:49;;;;;;;;;;;10.60;99.90;;;;;;7334666;19;111324;-67
2023/12/27 09:45:18;;;;;;;;;;;10.60;99.90;;;;;;7336568;19;108593;-66
2023/12/27 09:47:46;;;;;;;;;;;10.60;99.90;;;;;;7334846;19;109426;-67
2023/12/27 09:50:14;;;;;;;;;;;10.60;99.90;;;;;;7335946;19;109018;-70
2023/12/27 09:52:42;;;;;;;;;;;10.70;99.90;;;;;;7333931;19;109063;-67
2023/12/27 09:55:09;;;;;;;;;;;10.70;99.90;;;;;;7335295;19;109292;-70
2023/12/27 09:57:37;;;;;;;;;;;10.70;99.90;;;;;;7336886;19;108608;-68
2023/12/27 10:00:05;;;;;;;;;;;10.70;99.90;;;;;;7332126;19;109074;-67
2023/12/27 10:02:34;;;;;;;;;;;10.80;99.90;;;;;;7340126;19;110077;-68
2023/12/27 10:05:07;;;;;;;;;;;10.80;99.90;;;;;;7333561;19;108773;-66
2023/12/27 10:07:39;;;;;;;;;;;10.90;99.90;;;;;;7335228;19;109351;-67
2023/12/27 10:10:18;;;;;;;;;;;10.90;99.90;;;;;;7331029;19;110023;-67
2023/12/27 10:12:54;;;;;;;;;;;10.90;99.90;;;;;;7335183;19;108939;-67
2023/12/27 10:15:21;;;;;;;;;;;10.90;99.90;;;;;;7334178;19;109249;-66
2023/12/27 10:17:49;;;;;;;;;;;10.90;99.90;;;;;;7336585;19;111124;-67
2023/12/27 10:20:38;;;;;;;;;;;11.00;99.90;;;;;;7334353;19;108727;-67
2023/12/27 10:23:07;;;;;;;;;;;11.00;99.90;;;;;;7332383;19;109286;-67
2023/12/27 10:25:35;;;;;;;;;;;11.00;99.90;;;;;;7341190;19;110362;-65
2023/12/27 10:28:02;;;;;;;;;;;11.00;99.90;;;;;;7334072;19;109620;-66
2023/12/27 10:30:29;;;;;;;;;;;11.00;99.90;;;;;;7336445;19;108964;-66
2023/12/27 10:33:00;;;;;;;;;;;11.10;99.90;;;;;;7332803;19;108775;-66
2023/12/27 10:35:28;;;;;;;;;;;11.10;99.90;;;;;;7335614;19;109104;-66
2023/12/27 10:37:59;;;;;;;;;;;11.10;99.90;;;;;;7334208;19;113752;-67
2023/12/27 10:40:26;;;;;;;;;;;11.20;99.90;;;;;;7336563;19;109007;-66
2023/12/27 10:42:53;;;;;;;;;;;11.20;99.90;;;;;;7335820;19;109159;-66
2023/12/27 10:45:21;;;;;;;;;;;11.20;99.90;;;;;;7338800;19;108928;-65
2023/12/27 10:47:51;;;;;;;;;;;11.20;99.90;;;;;;7343313;19;109184;-66
2023/12/27 10:50:19;;;;;;;;;;;11.20;99.90;;;;;;7338591;19;108777;-66
2023/12/27 10:52:51;;;;;;;;;;;11.30;99.90;;;;;;7336571;19;108942;-67
2023/12/27 10:55:19;;;;;;;;;;;11.30;99.90;;;;;;7337071;19;109851;-66
2023/12/27 10:57:50;;;;;;;;;;;11.30;99.90;;;;;;7336608;19;108392;-67
2023/12/27 11:00:17;;;;;;;;;;;11.30;99.90;;;;;;7337353;19;111201;-67
2023/12/27 11:02:45;;;;;;;;;;;11.30;99.90;;;;;;7336973;19;109093;-67
2023/12/27 11:05:15;;;;;;;;;;;11.30;99.90;;;;;;7333128;19;109424;-67
2023/12/27 11:07:42;;;;;;;;;;;11.40;99.90;;;;;;7339525;19;108685;-66
2023/12/27 11:10:10;;;;;;;;;;;11.40;99.90;;;;;;7331297;19;110692;-66
2023/12/27 11:12:38;;;;;;;;;;;11.40;99.90;;;;;;7330221;19;110209;-66
2023/12/27 11:15:06;;;;;;;;;;;11.50;99.90;;;;;;7330529;19;109290;-66
2023/12/27 11:17:35;;;;;;;;;;;11.40;99.90;;;;;;7332498;19;108657;-66
2023/12/27 11:20:04;;;;;;;;;;;11.50;99.90;;;;;;7330711;19;108780;-66
2023/12/27 11:22:33;;;;;;;;;;;11.50;99.90;;;;;;7331132;19;109568;-66
2023/12/27 11:25:00;;;;;;;;;;;11.50;99.90;;;;;;7330372;19;109422;-66
2023/12/27 11:27:27;;;;;;;;;;;11.50;99.90;;;;;;7333889;19;109120;-66
2023/12/27 11:29:57;;;;;;;;;;;11.50;99.90;;;;;;7336005;19;109355;-66
2023/12/27 11:32:26;;;;;;;;;;;11.50;99.90;;;;;;7333776;19;108847;-67
2023/12/27 11:34:55;;;;;;;;;;;11.50;99.90;;;;;;7332489;19;109984;-66
2023/12/27 11:37:22;;;;;;;;;;;11.60;99.90;;;;;;7334044;19;109006;-66
2023/12/27 11:39:52;;;;;;;;;;;11.60;99.90;;;;;;7333806;19;108584;-66
2023/12/27 11:42:21;;;;;;;;;;;11.60;99.90;;;;;;7332263;19;110180;-66
2023/12/27 11:44:49;;;;;;;;;;;11.60;99.90;;;;;;7332391;19;109744;-66
2023/12/27 11:47:16;;;;;;;;;;;11.60;99.90;;;;;;7334347;19;110555;-66
2023/12/27 11:50:03;;;;;;;;;;;11.70;99.90;;;;;;7334205;19;112686;-66
2023/12/27 11:52:33;;;;;;;;;;;11.70;99.90;;;;;;7339424;19;109322;-66
2023/12/27 11:55:23;;;;;;;;;;;11.70;99.90;;;;;;7334603;19;109125;-67
2023/12/27 11:57:57;;;;;;;;;;;11.70;99.90;;;;;;7333491;19;111588;-66
2023/12/27 12:00:25;;;;;;;;;;;11.80;99.90;;;;;;7331215;19;108664;-66
2023/12/27 12:02:57;;;;;;;;;;;11.80;99.90;;;;;;7329809;19;110545;-67
2023/12/27 12:05:35;;;;;;;;;;;11.80;99.90;;;;;;7332694;19;108762;-66
2023/12/27 12:08:21;;;;;;;;;;;11.80;99.90;;;;;;7331503;19;108971;-66
2023/12/27 12:11:05;;;;;;;;;;;11.80;99.90;;;;;;7332950;19;110284;-66
2023/12/27 12:13:32;;;;;;;;;;;11.80;99.90;;;;;;7331665;19;108834;-66
2023/12/27 12:16:00;;;;;;;;;;;11.90;99.90;;;;;;7337342;19;109700;-66
2023/12/27 12:18:28;;;;;;;;;;;11.90;99.90;;;;;;7333136;19;109259;-66
2023/12/27 12:20:55;;;;;;;;;;;11.90;99.90;;;;;;7329894;19;109391;-66
2023/12/27 12:23:22;;;;;;;;;;;11.90;99.90;;;;;;7330639;19;110041;-66
2023/12/27 12:25:49;;;;;;;;;;;11.90;99.90;;;;;;7332351;19;108862;-66
2023/12/27 12:28:17;;;;;;;;;;;11.90;99.90;;;;;;7327533;19;109171;-66
2023/12/27 12:30:44;;;;;;;;;;;11.90;99.90;;;;;;7328029;19;109502;-66
2023/12/27 12:33:12;;;;;;;;;;;11.90;99.90;;;;;;7331039;19;109971;-66
2023/12/27 12:35:40;;;;;;;;;;;11.90;99.90;;;;;;7330494;19;109861;-66
2023/12/27 12:38:07;;;;;;;;;;;11.90;99.90;;;;;;7335694;19;109504;-66
2023/12/27 12:40:36;;;;;;;;;;;11.80;99.90;;;;;;7331246;19;108654;-66
2023/12/27 12:43:03;;;;;;;;;;;11.90;99.90;;;;;;7331532;19;108832;-66
2023/12/27 12:45:32;;;;;;;;;;;11.90;99.90;;;;;;7332773;19;108733;-66
2023/12/27 12:47:59;;;;;;;;;;;11.90;99.90;;;;;;7334513;19;109654;-66
2023/12/27 12:50:27;;;;;;;;;;;11.90;99.90;;;;;;7331518;19;110225;-66
2023/12/27 12:52:54;;;;;;;;;;;11.80;99.90;;;;;;7332705;19;109089;-65
2023/12/27 12:55:28;;;;;;;;;;;11.80;99.90;;;;;;7330719;19;109492;-66
2023/12/27 12:57:58;;;;;;;;;;;11.80;99.90;;;;;;7330563;19;110215;-66
2023/12/27 13:00:26;;;;;;;;;;;11.80;99.90;;;;;;7342410;19;108768;-66
2023/12/27 13:02:54;;;;;;;;;;;11.80;99.90;;;;;;7336366;19;111439;-67
2023/12/27 13:05:21;;;;;;;;;;;11.80;99.90;;;;;;7340318;19;108989;-66
2023/12/27 13:07:48;;;;;;;;;;;11.80;99.90;;;;;;7338365;19;108810;-66
2023/12/27 13:10:18;;;;;;;;;;;11.80;99.90;;;;;;7336016;19;109240;-66
2023/12/27 13:12:46;;;;;;;;;;;11.80;99.90;;;;;;7335540;19;109572;-66
2023/12/27 13:15:19;;;;;;;;;;;11.80;99.90;;;;;;7339111;19;108234;-66
2023/12/27 13:17:48;;;;;;;;;;;11.80;99.90;;;;;;7334472;19;109188;-66
2023/12/27 13:20:16;;;;;;;;;;;11.80;99.90;;;;;;7341648;19;108973;-66
2023/12/27 13:22:43;;;;;;;;;;;11.70;99.90;;;;;;7338889;19;109182;-66
2023/12/27 13:25:10;;;;;;;;;;;11.70;99.90;;;;;;7335682;19;108938;-66
2023/12/27 13:27:37;;;;;;;;;;;11.70;99.90;;;;;;7339198;19;110445;-66
2023/12/27 13:30:04;;;;;;;;;;;11.70;99.90;;;;;;7333238;19;109133;-69
2023/12/27 13:32:31;;;;;;;;;;;11.70;99.90;;;;;;7338543;19;108603;-66
2023/12/27 13:34:59;;;;;;;;;;;11.60;99.90;;;;;;7338426;19;109788;-67
2023/12/27 13:37:26;;;;;;;;;;;11.60;99.90;;;;;;7338360;19;109980;-70
2023/12/27 13:39:53;;;;;;;;;;;11.70;99.90;;;;;;7337318;19;109356;-72
2023/12/27 13:42:22;;;;;;;;;;;11.70;99.90;;;;;;7345776;19;108530;-74
2023/12/27 13:44:50;;;;;;;;;;;11.70;99.90;;;;;;7340109;19;110021;-65
2023/12/27 13:47:17;;;;;;;;;;;11.70;99.90;;;;;;7340433;19;110157;-70
2023/12/27 13:49:46;;;;;;;;;;;11.60;99.90;;;;;;7338714;19;108998;-69
2023/12/27 13:52:14;;;;;;;;;;;11.60;99.90;;;;;;7338966;19;109077;-66
2023/12/27 13:54:44;;;;;;;;;;;11.60;99.90;;;;;;7337563;19;109029;-65
2023/12/27 13:57:11;;;;;;;;;;;11.60;99.90;;;;;;7336144;19;109165;-66
2023/12/27 13:59:39;;;;;;;;;;;11.60;99.90;;;;;;7337252;19;108914;-66
2023/12/27 14:02:06;;;;;;;;;;;11.60;99.90;;;;;;7337300;19;108712;-65
2023/12/27 14:04:34;;;;;;;;;;;11.60;99.90;;;;;;7344904;19;109262;-65
2023/12/27 14:07:01;;;;;;;;;;;11.60;99.90;;;;;;7336487;19;108888;-65
2023/12/27 14:09:28;;;;;;;;;;;11.60;99.90;;;;;;7336324;19;109284;-65
2023/12/27 14:11:56;;;;;;;;;;;11.60;99.90;;;;;;7336988;19;108860;-66
2023/12/27 14:14:27;;;;;;;;;;;11.60;99.90;;;;;;7336781;19;110621;-66
2023/12/27 14:16:54;;;;;;;;;;;11.60;99.90;;;;;;7337569;19;110162;-65